Time;durP1;ratioP1;P1;durP2;ratioP2;P2;SDS_P1;SDS_P2;PMS_P1;PMS_P2;Temp;Humidity;BMP_temperature;BMP_pressure;BME280_temperature;BME280_humidity;BME280_pressure;Samples;Min_cycle;Max_cycle;Signal;HPM_P1;HPM_P2
2023/03/14 00:01:22;;;;;;;9.40;4.20;;;;;;;10.80;91.61;98507.03;5100322;28;20036;-92
2023/03/14 00:03:50;;;;;;;10.77;4.63;;;;;;;10.80;92.34;98516.78;5091012;28;20031;-91
2023/03/14 00:06:17;;;;;;;11.45;4.03;;;;;;;10.77;92.53;98506.25;5100129;28;20821;-92
2023/03/14 00:08:44;;;;;;;8.95;4.13;;;;;;;10.80;92.84;98520.34;5099582;28;20036;-92
2023/03/14 00:11:13;;;;;;;15.90;4.25;;;;;;;10.60;92.97;98501.47;5099750;28;20474;-92
2023/03/14 00:13:39;;;;;;;10.73;4.22;;;;;;;10.46;94.39;98492.13;5100404;28;20044;-91
2023/03/14 00:16:07;;;;;;;10.70;3.90;;;;;;;10.39;94.73;98493.25;5099507;28;20040;-92
2023/03/14 00:18:34;;;;;;;9.25;4.57;;;;;;;10.40;96.54;98494.97;5099283;28;20135;-91
2023/03/14 00:21:03;;;;;;;11.38;4.28;;;;;;;10.31;96.83;98475.81;5099129;28;20048;-93
2023/03/14 00:23:31;;;;;;;8.70;4.20;;;;;;;10.21;97.14;98468.09;5088531;28;20040;-93
2023/03/14 00:25:59;;;;;;;12.10;4.65;;;;;;;10.15;98.60;98468.28;5097498;28;20043;-92
2023/03/14 00:28:25;;;;;;;8.95;4.57;;;;;;;10.23;99.61;98499.91;5097518;28;20044;-94
2023/03/14 00:30:51;;;;;;;9.80;4.80;;;;;;;9.96;100.00;98462.63;5097247;28;20448;-94
2023/03/14 00:33:17;;;;;;;11.27;4.72;;;;;;;10.01;100.00;98479.28;5098716;28;20040;-91
2023/03/14 00:35:42;;;;;;;12.10;4.30;;;;;;;9.86;100.00;98475.28;5098555;28;20055;-93
2023/03/14 00:38:10;;;;;;;7.95;4.35;;;;;;;9.91;100.00;98474.28;5099124;28;20060;-91
2023/03/14 00:40:39;;;;;;;9.88;4.50;;;;;;;9.69;100.00;98445.69;5095207;28;20051;-93
2023/03/14 00:43:04;;;;;;;12.70;4.80;;;;;;;9.73;100.00;98425.25;5092102;28;20072;-92
2023/03/14 00:45:30;;;;;;;11.63;4.97;;;;;;;9.94;100.00;98451.19;5096294;28;20044;-91
2023/03/14 00:47:56;;;;;;;12.60;5.22;;;;;;;9.82;100.00;98430.28;5096756;28;20044;-92
2023/03/14 00:50:22;;;;;;;14.55;4.95;;;;;;;9.77;100.00;98424.25;5096686;28;20067;-93
2023/03/14 00:52:48;;;;;;;12.63;5.47;;;;;;;9.85;100.00;98430.22;5096900;28;20032;-93
2023/03/14 00:55:16;;;;;;;12.05;4.88;;;;;;;10.06;100.00;98423.34;5098072;28;20103;-92
2023/03/14 00:57:42;;;;;;;13.35;5.38;;;;;;;10.22;100.00;98431.75;5098392;28;20044;-92
2023/03/14 01:00:11;;;;;;;12.20;5.30;;;;;;;10.16;100.00;98414.19;5096048;28;20067;-91
2023/03/14 01:02:37;;;;;;;14.18;5.88;;;;;;;10.15;100.00;98411.56;5097345;28;20059;-91
2023/03/14 01:05:04;;;;;;;11.15;5.53;;;;;;;10.06;100.00;98388.81;5097717;28;20048;-92
2023/03/14 01:07:30;;;;;;;10.98;5.32;;;;;;;10.11;100.00;98402.84;5097718;28;20111;-91
2023/03/14 01:09:55;;;;;;;12.43;5.68;;;;;;;9.95;100.00;98375.88;5099122;28;20060;-94
2023/03/14 01:12:23;;;;;;;14.05;5.70;;;;;;;9.95;100.00;98377.66;5098793;28;20047;-92
2023/03/14 01:14:49;;;;;;;14.52;5.55;;;;;;;10.15;100.00;98404.50;5098028;28;20043;-92
2023/03/14 01:17:15;;;;;;;14.10;5.80;;;;;;;9.96;100.00;98374.97;5098530;28;20494;-92
2023/03/14 01:19:41;;;;;;;13.60;6.20;;;;;;;9.97;100.00;98381.16;5090403;28;20502;-92
2023/03/14 01:22:07;;;;;;;15.05;6.47;;;;;;;10.06;100.00;98400.34;5094189;28;20385;-92
2023/03/14 01:24:32;;;;;;;16.73;7.72;;;;;;;10.05;100.00;98395.94;5097827;28;20043;-91
2023/03/14 01:26:59;;;;;;;18.55;6.40;;;;;;;9.91;100.00;98366.28;5098362;28;20059;-91
2023/03/14 01:29:27;;;;;;;17.05;6.38;;;;;;;9.89;100.00;98357.50;5096795;28;20048;-92
2023/03/14 01:31:53;;;;;;;17.15;6.47;;;;;;;9.86;100.00;98338.97;5097523;28;20044;-92
2023/03/14 01:34:18;;;;;;;14.25;6.65;;;;;;;9.82;100.00;98324.06;5097281;28;20131;-94
2023/03/14 01:36:44;;;;;;;14.95;6.78;;;;;;;9.98;100.00;98359.00;5097803;28;20047;-92
2023/03/14 01:39:10;;;;;;;13.57;6.35;;;;;;;9.95;100.00;98337.81;5097092;28;20044;-91
2023/03/14 01:41:36;;;;;;;18.48;7.22;;;;;;;9.97;100.00;98323.56;5097685;28;20139;-93
2023/03/14 01:44:02;;;;;;;13.45;5.78;;;;;;;9.91;100.00;98312.28;5096825;28;20040;-93
2023/03/14 01:46:34;;;;;;;13.77;6.38;;;;;;;9.92;100.00;98308.72;5096012;28;20117;-92
2023/03/14 01:49:08;;;;;;;15.60;6.47;;;;;;;9.98;100.00;98314.69;5096324;28;20202;-92
2023/03/14 01:51:40;;;;;;;14.20;6.13;;;;;;;10.02;100.00;98318.13;5095836;28;20064;-93
2023/03/14 01:54:11;;;;;;;17.23;6.35;;;;;;;10.07;100.00;98302.91;5096530;28;20051;-92
2023/03/14 01:56:39;;;;;;;14.55;6.25;;;;;;;10.18;100.00;98292.78;5096218;28;20040;-93
2023/03/14 01:59:07;;;;;;;13.90;6.35;;;;;;;10.14;100.00;98282.31;5096289;28;20382;-92
2023/03/14 02:01:36;;;;;;;13.80;6.20;;;;;;;10.15;100.00;98278.72;5096829;28;20032;-92
2023/03/14 02:04:05;;;;;;;13.70;6.88;;;;;;;10.10;100.00;98254.13;5097392;28;20044;-92
2023/03/14 02:06:39;;;;;;;12.98;5.90;;;;;;;10.12;100.00;98257.59;5097279;28;20112;-92
2023/03/14 02:09:05;;;;;;;14.88;6.18;;;;;;;10.11;100.00;98243.44;5099476;28;20047;-92
2023/03/14 02:11:31;;;;;;;13.85;6.57;;;;;;;10.18;100.00;98262.69;5101540;28;20047;-93
2023/03/14 02:13:59;;;;;;;16.95;6.55;;;;;;;10.12;100.00;98252.28;5101335;28;20074;-94
2023/03/14 02:16:25;;;;;;;11.20;6.03;;;;;;;10.17;100.00;98252.97;5099966;28;20040;-91
2023/03/14 02:18:53;;;;;;;11.18;5.93;;;;;;;10.24;100.00;98263.38;5100498;28;20454;-92
2023/03/14 02:21:23;;;;;;;12.45;5.60;;;;;;;10.19;100.00;98245.81;5100326;28;20374;-93
2023/03/14 02:23:56;;;;;;;13.20;6.03;;;;;;;10.13;100.00;98233.63;5100308;28;20071;-90
2023/03/14 02:26:27;;;;;;;14.25;6.18;;;;;;;10.01;100.00;98200.38;5099671;28;20131;-93
2023/03/14 02:28:55;;;;;;;13.32;5.57;;;;;;;10.20;100.00;98231.63;5100152;28;20040;-91
2023/03/14 02:31:23;;;;;;;14.18;5.95;;;;;;;10.07;100.00;98199.31;5099772;28;20048;-95
2023/03/14 02:33:50;;;;;;;11.27;4.93;;;;;;;10.07;100.00;98181.56;5099612;28;20051;-92
2023/03/14 02:36:18;;;;;;;11.15;5.38;;;;;;;10.06;100.00;98185.16;5101551;28;20044;-93
2023/03/14 02:38:50;;;;;;;12.32;5.40;;;;;;;10.07;100.00;98189.53;5100293;28;20036;-94
2023/03/14 02:41:16;;;;;;;18.67;6.53;;;;;;;10.05;100.00;98180.75;5100926;28;20036;-93
2023/03/14 02:43:42;;;;;;;11.63;5.45;;;;;;;10.11;100.00;98189.44;5098098;28;20070;-93
2023/03/14 02:46:12;;;;;;;12.23;5.25;;;;;;;10.07;100.00;98184.22;5097212;28;20040;-93
2023/03/14 02:48:43;;;;;;;10.55;5.45;;;;;;;9.98;100.00;98175.72;5101584;28;20044;-93
2023/03/14 02:51:09;;;;;;;12.05;5.00;;;;;;;9.98;100.00;98183.69;5101156;28;20094;-92
2023/03/14 02:53:37;;;;;;;13.60;5.82;;;;;;;9.91;100.00;98180.38;5100801;28;20040;-93
2023/03/14 02:56:04;;;;;;;12.40;5.72;;;;;;;9.82;100.00;98170.03;5100562;28;20126;-92
2023/03/14 02:58:30;;;;;;;9.18;5.28;;;;;;;9.90;100.00;98181.28;5101041;28;20405;-95
2023/03/14 03:00:56;;;;;;;12.15;5.43;;;;;;;9.74;100.00;98151.72;5100781;28;20044;-92
2023/03/14 03:03:24;;;;;;;12.15;5.57;;;;;;;9.70;100.00;98143.91;5101773;28;20040;-93
2023/03/14 03:05:50;;;;;;;13.75;5.85;;;;;;;9.85;100.00;98175.25;5101683;28;20063;-92
2023/03/14 03:08:17;;;;;;;10.80;5.15;;;;;;;9.57;100.00;98141.66;5101951;28;20040;-92
2023/03/14 03:10:43;;;;;;;13.35;5.30;;;;;;;9.55;100.00;98151.47;5100650;28;20054;-91
2023/03/14 03:13:09;;;;;;;10.38;5.20;;;;;;;9.42;100.00;98123.59;5099881;28;20044;-93
2023/03/14 03:15:34;;;;;;;16.20;5.72;;;;;;;9.45;100.00;98112.88;5099430;28;20405;-93
2023/03/14 03:18:00;;;;;;;12.13;5.18;;;;;;;9.44;100.00;98113.81;5099659;28;20075;-92
2023/03/14 03:20:28;;;;;;;11.85;5.40;;;;;;;9.58;100.00;98135.41;5098199;28;20032;-92
2023/03/14 03:22:54;;;;;;;11.15;5.78;;;;;;;9.35;100.00;98112.31;5097827;28;20072;-91
2023/03/14 03:25:20;;;;;;;14.68;5.82;;;;;;;9.31;100.00;98115.97;5099760;28;20531;-92
2023/03/14 03:27:45;;;;;;;12.93;5.65;;;;;;;9.22;100.00;98106.53;5099378;28;20479;-92
2023/03/14 03:30:12;;;;;;;12.20;6.07;;;;;;;9.23;100.00;98095.00;5098082;28;20044;-93
2023/03/14 03:32:38;;;;;;;11.30;5.47;;;;;;;9.25;100.00;98111.72;5097990;28;20150;-93
2023/03/14 03:35:05;;;;;;;10.98;5.28;;;;;;;9.38;100.00;98111.34;5099103;28;20044;-92
2023/03/14 03:37:34;;;;;;;15.55;5.68;;;;;;;9.38;100.00;98098.06;5095635;28;20040;-93
2023/03/14 03:40:00;;;;;;;15.33;5.30;;;;;;;9.50;100.00;98110.94;5099242;28;20375;-91
2023/03/14 03:42:26;;;;;;;16.17;5.32;;;;;;;9.39;100.00;98078.56;5099597;28;20261;-93
2023/03/14 03:44:52;;;;;;;12.40;5.45;;;;;;;9.36;100.00;98073.38;5132203;27;20040;-93
2023/03/14 03:47:18;;;;;;;12.85;5.30;;;;;;;9.49;nan;98097.72;5098544;28;20040;-90
2023/03/14 03:49:44;;;;;;;10.82;4.85;;;;;;;9.33;100.00;98084.97;5099496;28;20073;-92
2023/03/14 03:52:10;;;;;;;10.20;5.43;;;;;;;9.39;100.00;98089.19;5099633;28;20413;-92
2023/03/14 03:54:37;;;;;;;11.52;5.30;;;;;;;9.21;100.00;98082.69;5099394;28;20046;-93
2023/03/14 03:57:03;;;;;;;10.38;5.18;;;;;;;9.26;100.00;98102.00;5098609;28;20068;-91
2023/03/14 03:59:29;;;;;;;12.18;5.68;;;;;;;9.05;100.00;98059.31;5099698;28;20037;-93
2023/03/14 04:01:55;;;;;;;10.55;5.38;;;;;;;9.09;100.00;98062.75;5098856;28;20040;-93
2023/03/14 04:04:21;;;;;;;9.02;5.35;;;;;;;9.18;100.00;98056.28;5099193;28;20044;-94
2023/03/14 04:06:47;;;;;;;9.82;4.72;;;;;;;9.24;100.00;98050.78;5098241;28;20044;-92
2023/03/14 04:09:14;;;;;;;9.35;4.78;;;;;;;9.38;100.00;98072.41;5099649;28;20044;-91
2023/03/14 04:11:42;;;;;;;10.98;4.10;;;;;;;9.40;100.00;98070.56;5099124;28;20127;-92
2023/03/14 04:14:08;;;;;;;9.43;4.20;;;;;;;9.47;97.63;98057.94;5095467;28;20036;-93
2023/03/14 04:16:34;;;;;;;7.90;4.22;;;;;;;9.60;96.35;98076.97;5097762;28;20040;-92
2023/03/14 04:19:00;;;;;;;6.45;3.72;;;;;;;9.72;95.42;98086.34;5099743;28;20075;-93
2023/03/14 04:21:26;;;;;;;8.05;3.30;;;;;;;9.66;94.56;98063.50;5093620;28;20051;-92
2023/03/14 04:23:51;;;;;;;8.35;3.60;;;;;;;9.77;93.89;98077.25;5097111;28;20134;-94
2023/03/14 04:26:17;;;;;;;10.48;3.85;;;;;;;9.81;93.42;98070.06;5098778;28;20055;-92
2023/03/14 04:28:45;;;;;;;7.07;3.67;;;;;;;9.70;93.21;98054.50;5097903;28;20044;-92
2023/03/14 04:31:16;;;;;;;8.23;4.00;;;;;;;9.82;92.80;98079.75;5096399;28;20056;-90
2023/03/14 04:33:42;;;;;;;9.68;3.55;;;;;;;9.81;92.78;98078.03;5096075;28;20569;-91
2023/03/14 04:36:09;;;;;;;8.00;3.75;;;;;;;9.71;93.45;98087.22;5098173;28;20063;-93
2023/03/14 04:38:35;;;;;;;6.88;3.92;;;;;;;9.92;92.30;98086.47;5100953;28;20093;-91
2023/03/14 04:41:02;;;;;;;7.80;4.32;;;;;;;9.91;91.97;98090.06;5100529;28;20044;-91
2023/03/14 04:43:29;;;;;;;8.75;3.40;;;;;;;9.85;92.29;98072.56;5101093;28;20040;-92
2023/03/14 04:45:57;;;;;;;6.65;3.50;;;;;;;9.76;91.94;98051.66;5100644;28;20036;-93
2023/03/14 04:48:24;;;;;;;7.63;3.42;;;;;;;9.76;92.31;98061.38;5100338;28;20051;-91
2023/03/14 04:50:50;;;;;;;9.38;3.70;;;;;;;9.74;92.31;98055.28;5101485;28;20050;-91
2023/03/14 04:53:17;;;;;;;9.05;4.20;;;;;;;9.66;93.54;98035.16;5100070;28;20039;-91
2023/03/14 04:55:47;;;;;;;7.43;3.85;;;;;;;9.62;93.61;98037.97;5100758;28;20040;-92
2023/03/14 04:58:13;;;;;;;7.32;3.97;;;;;;;9.63;93.16;98034.41;5097849;28;20051;-91
2023/03/14 05:00:39;;;;;;;11.65;4.50;;;;;;;9.66;93.04;98029.00;5098752;28;20040;-91
2023/03/14 05:03:07;;;;;;;9.35;4.55;;;;;;;9.66;93.13;98027.19;5099504;28;20040;-92
2023/03/14 05:05:33;;;;;;;10.55;4.43;;;;;;;9.69;93.73;98041.28;5100013;28;20116;-91
2023/03/14 05:07:59;;;;;;;9.25;4.80;;;;;;;9.63;93.35;98014.03;5100060;28;20067;-93
2023/03/14 05:10:25;;;;;;;9.88;4.53;;;;;;;9.81;92.51;98033.75;5100088;28;20036;-91
2023/03/14 05:12:51;;;;;;;8.70;4.40;;;;;;;9.98;91.39;98037.59;5097495;28;20036;-94
2023/03/14 05:15:17;;;;;;;10.75;4.35;;;;;;;10.00;90.07;98023.34;5098434;28;20044;-92
2023/03/14 05:17:43;;;;;;;10.52;4.15;;;;;;;10.07;89.70;98031.94;5101463;28;20040;-92
2023/03/14 05:20:14;;;;;;;9.35;3.97;;;;;;;10.12;89.56;98042.41;5102786;28;20056;-91
2023/03/14 05:22:40;;;;;;;8.77;3.80;;;;;;;10.16;87.20;98025.44;5100718;28;20128;-94
2023/03/14 05:25:07;;;;;;;11.77;4.40;;;;;;;10.28;87.37;98054.22;5104207;28;20134;-93
2023/03/14 05:27:33;;;;;;;10.13;4.75;;;;;;;10.21;87.55;98034.06;5101167;28;20060;-93
2023/03/14 05:30:01;;;;;;;11.25;4.53;;;;;;;10.22;87.03;98036.69;5102287;28;20561;-93
2023/03/14 05:32:27;;;;;;;10.38;4.85;;;;;;;10.35;87.29;98058.38;5100961;28;20040;-93
2023/03/14 05:34:53;;;;;;;11.90;5.10;;;;;;;10.27;87.04;98047.13;5102924;28;20048;-94
2023/03/14 05:37:20;;;;;;;11.90;5.00;;;;;;;10.25;87.03;98056.97;5103739;28;20044;-93
2023/03/14 05:39:46;;;;;;;8.25;4.05;;;;;;;10.28;86.97;98063.03;5103300;28;20044;-93
2023/03/14 05:42:13;;;;;;;11.07;4.25;;;;;;;10.30;87.81;98065.69;5101801;28;20052;-92
2023/03/14 05:44:39;;;;;;;9.95;4.40;;;;;;;10.37;86.70;98072.50;5097670;28;20048;-93
2023/03/14 05:47:05;;;;;;;12.02;4.85;;;;;;;10.47;86.92;98089.84;5098632;28;20040;-94
2023/03/14 05:49:31;;;;;;;10.55;4.18;;;;;;;10.45;87.18;98091.69;5102006;28;20043;-93
2023/03/14 05:51:57;;;;;;;8.63;3.72;;;;;;;10.32;87.65;98090.38;5101400;28;20090;-92
2023/03/14 05:54:25;;;;;;;10.65;4.10;;;;;;;10.37;87.53;98088.44;5101907;28;20051;-95
2023/03/14 05:56:51;;;;;;;9.00;4.07;;;;;;;10.33;88.01;98080.63;5102972;28;20071;-92
2023/03/14 05:59:16;;;;;;;8.43;4.22;;;;;;;10.30;88.74;98084.28;5103603;28;20565;-93
2023/03/14 06:01:42;;;;;;;6.35;3.47;;;;;;;10.62;84.92;98112.28;5099977;28;20079;-93
2023/03/14 06:04:09;;;;;;;6.15;3.60;;;;;;;10.56;84.47;98085.06;5104234;28;20493;-94
2023/03/14 06:06:34;;;;;;;8.60;3.22;;;;;;;10.88;82.79;98110.44;5100466;28;20052;-94
2023/03/14 06:09:00;;;;;;;7.15;3.15;;;;;;;10.82;81.84;98060.13;5101386;28;20140;-94
2023/03/14 06:11:28;;;;;;;7.15;3.63;;;;;;;11.02;82.00;98067.34;5098700;28;20036;-92
2023/03/14 06:13:53;;;;;;;6.72;3.75;;;;;;;11.18;82.11;98035.66;5099249;28;20040;-91
2023/03/14 06:16:19;;;;;;;7.65;3.97;;;;;;;10.98;82.76;97935.38;5097135;28;20097;-93
2023/03/14 06:18:48;;;;;;;7.25;3.85;;;;;;;10.93;83.55;97889.47;5093647;28;20137;-93
2023/03/14 06:21:14;;;;;;;8.35;3.83;;;;;;;10.75;84.10;97913.25;5095216;28;20062;-94
2023/03/14 06:23:40;;;;;;;13.63;4.90;;;;;;;10.64;84.79;97953.56;5098865;28;20036;-93
2023/03/14 06:26:06;;;;;;;6.60;4.10;;;;;;;10.65;84.56;97975.72;5097815;28;20040;-93
2023/03/14 06:28:33;;;;;;;5.20;3.70;;;;;;;10.45;85.61;97926.88;5095249;28;20108;-94
2023/03/14 06:31:00;;;;;;;8.80;4.07;;;;;;;10.34;86.15;97918.44;5094674;28;20098;-91
2023/03/14 06:33:26;;;;;;;12.65;4.63;;;;;;;10.38;86.33;97951.94;5093721;28;20497;-94
2023/03/14 06:35:52;;;;;;;9.65;4.07;;;;;;;10.41;86.29;97974.88;5096040;28;20107;-93
2023/03/14 06:38:17;;;;;;;8.38;4.05;;;;;;;10.61;85.55;97990.06;5097449;28;20108;-93
2023/03/14 06:40:43;;;;;;;9.82;3.95;;;;;;;10.60;83.94;97967.91;5097295;28;20063;-93
2023/03/14 06:43:11;;;;;;;8.13;3.72;;;;;;;10.74;83.96;97970.03;5096738;28;20040;-90
2023/03/14 06:45:38;;;;;;;6.72;3.75;;;;;;;10.82;83.82;97965.28;5095278;28;20047;-93
2023/03/14 06:48:04;;;;;;;9.43;3.60;;;;;;;10.90;83.57;97979.09;5098037;28;20054;-90
2023/03/14 06:50:31;;;;;;;8.38;3.85;;;;;;;11.02;83.49;97992.84;5097144;28;20202;-91
2023/03/14 06:52:56;;;;;;;8.32;4.97;;;;;;;11.20;83.07;98000.06;5096998;28;20485;-92
2023/03/14 06:55:22;;;;;;;9.00;4.28;;;;;;;11.24;81.62;97971.53;5101780;28;20042;-94
2023/03/14 06:57:48;;;;;;;8.65;3.55;;;;;;;11.49;79.46;97960.66;5103059;28;20040;-93
2023/03/14 07:00:15;;;;;;;7.40;4.07;;;;;;;11.59;78.68;97948.69;5104015;28;20043;-93
2023/03/14 07:02:45;;;;;;;10.48;3.88;;;;;;;11.84;78.38;97963.56;5103127;28;20044;-92
2023/03/14 07:05:11;;;;;;;6.75;3.85;;;;;;;11.99;76.13;97957.59;5103751;28;20054;-95
2023/03/14 07:07:37;;;;;;;8.57;3.63;;;;;;;12.16;73.48;97945.28;5102540;28;20040;-95
2023/03/14 07:10:04;;;;;;;6.82;3.47;;;;;;;12.34;72.92;97941.75;5100006;28;20063;-93
2023/03/14 07:12:30;;;;;;;6.95;3.10;;;;;;;12.44;73.41;97926.16;5101419;28;20389;-93
2023/03/14 07:14:56;;;;;;;8.77;3.30;;;;;;;12.61;72.37;97928.03;5102686;28;20142;-92
2023/03/14 07:17:21;;;;;;;5.47;3.72;;;;;;;12.85;71.89;97945.47;5100056;28;20135;-93
2023/03/14 07:19:49;;;;;;;7.13;3.38;;;;;;;12.97;70.27;97919.13;5101207;28;20510;-94
2023/03/14 07:22:15;;;;;;;5.68;3.00;;;;;;;13.06;70.21;97900.00;5101169;28;20074;-92
2023/03/14 07:24:41;;;;;;;5.30;2.90;;;;;;;13.11;69.95;97901.47;5098115;28;20052;-95
2023/03/14 07:27:07;;;;;;;6.32;2.90;;;;;;;13.03;69.13;97884.13;5099389;28;20040;-92
2023/03/14 07:29:33;;;;;;;5.90;2.80;;;;;;;13.28;69.18;97903.31;5099694;28;20087;-94
2023/03/14 07:31:59;;;;;;;5.63;2.78;;;;;;;13.22;68.90;97874.22;5098591;28;20044;-92
2023/03/14 07:34:24;;;;;;;6.78;2.95;;;;;;;13.45;68.28;97899.75;5101721;28;20040;-95
2023/03/14 07:36:52;;;;;;;5.03;2.92;;;;;;;13.63;66.91;97907.75;5100590;28;20044;-93
2023/03/14 07:39:18;;;;;;;8.10;3.08;;;;;;;13.91;66.46;97901.78;5099836;28;20454;-93
2023/03/14 07:41:44;;;;;;;7.57;3.05;;;;;;;13.90;65.27;97886.66;5099534;28;20080;-94
2023/03/14 07:44:11;;;;;;;7.35;3.00;;;;;;;14.12;64.64;97891.72;5099641;28;20050;-94
2023/03/14 07:46:37;;;;;;;8.02;3.92;;;;;;;14.29;63.68;97878.28;5100018;28;20044;-92
2023/03/14 07:49:03;;;;;;;7.75;2.95;;;;;;;14.51;62.61;97883.25;5099606;28;20075;-93
2023/03/14 07:51:29;;;;;;;6.93;3.03;;;;;;;14.86;62.25;97895.59;5101598;28;20055;-94
2023/03/14 07:53:56;;;;;;;8.68;4.10;;;;;;;14.90;60.61;97913.19;5100427;28;20044;-93
2023/03/14 07:56:22;;;;;;;7.00;3.35;;;;;;;15.05;60.46;97892.66;5101407;28;20071;-94
2023/03/14 07:58:48;;;;;;;6.45;3.00;;;;;;;15.09;59.66;97883.50;5101039;28;20040;-93
2023/03/14 08:01:14;;;;;;;5.75;2.90;;;;;;;15.12;59.54;97872.63;5104490;28;20102;-95
2023/03/14 08:03:43;;;;;;;5.28;2.70;;;;;;;14.99;58.61;97859.97;5101208;28;20417;-94
2023/03/14 08:06:09;;;;;;;6.32;2.70;;;;;;;15.15;58.91;97840.28;5100607;28;20040;-94
2023/03/14 08:08:36;;;;;;;6.63;2.92;;;;;;;14.95;59.13;97839.69;5102115;28;20040;-94
2023/03/14 08:11:05;;;;;;;5.07;2.50;;;;;;;14.78;60.08;97829.97;5101246;28;20078;-94
2023/03/14 08:13:31;;;;;;;;;;;;;;;14.96;60.06;97868.19;5101758;28;20051;-95
2023/03/14 08:15:57;;;;;;;4.95;2.60;;;;;;;14.68;58.92;97849.34;5101016;28;19920;-95
2023/03/14 08:18:24;;;;;;;6.60;2.50;;;;;;;14.43;59.60;97849.88;5099209;28;20043;-93
2023/03/14 08:20:50;;;;;;;5.32;2.63;;;;;;;14.38;60.01;97875.06;5098615;28;20055;-95
2023/03/14 08:23:16;;;;;;;8.07;3.35;;;;;;;13.98;60.90;97847.88;5099901;28;20036;-93
2023/03/14 08:25:43;;;;;;;5.35;2.80;;;;;;;13.77;61.86;97857.97;5099765;28;20066;-94
2023/03/14 08:28:11;;;;;;;5.45;2.40;;;;;;;13.60;61.99;97852.69;5101547;28;20044;-94
2023/03/14 08:30:37;;;;;;;6.75;2.35;;;;;;;13.47;62.18;97848.94;5099892;28;20112;-94
2023/03/14 08:33:03;;;;;;;5.97;2.60;;;;;;;13.41;62.41;97854.59;5100542;28;20079;-93
2023/03/14 08:35:28;;;;;;;6.18;2.90;;;;;;;13.78;61.95;97872.19;5100291;28;20048;-93
2023/03/14 08:37:55;;;;;;;9.20;2.85;;;;;;;14.23;60.01;97873.25;5098894;28;20393;-94
2023/03/14 08:40:21;;;;;;;7.43;2.55;;;;;;;14.68;60.09;97855.56;5097712;28;20051;-94
2023/03/14 08:42:47;;;;;;;6.10;2.55;;;;;;;14.94;58.88;97872.78;5097767;28;20032;-94
2023/03/14 08:45:16;;;;;;;5.55;2.60;;;;;;;15.08;57.25;97871.94;5098810;28;20071;-93
2023/03/14 08:47:42;;;;;;;;;;;;;;;15.56;56.85;97901.22;5098722;28;20089;-93
2023/03/14 08:50:10;;;;;;;8.90;2.70;;;;;;;15.87;55.21;97889.47;5098691;28;19920;-94
2023/03/14 08:52:37;;;;;;;6.22;2.33;;;;;;;15.94;52.64;97877.44;5097451;28;20090;-95
2023/03/14 08:55:04;;;;;;;7.25;2.65;;;;;;;16.02;52.18;97855.47;5097876;28;20044;-93
2023/03/14 08:57:30;;;;;;;11.77;2.75;;;;;;;16.14;51.73;97861.88;5097538;28;20036;-94
2023/03/14 08:59:57;;;;;;;7.78;2.30;;;;;;;16.03;51.55;97857.22;5100869;28;20046;-95
2023/03/14 09:02:25;;;;;;;5.93;2.22;;;;;;;16.35;50.64;97865.88;5100966;28;20040;-95
2023/03/14 09:04:52;;;;;;;5.65;2.60;;;;;;;16.28;51.36;97874.41;5101049;28;20043;-95
2023/03/14 09:07:18;;;;;;;6.15;2.60;;;;;;;15.99;51.71;97856.53;5100185;28;20059;-94
2023/03/14 09:09:44;;;;;;;6.68;2.50;;;;;;;15.57;53.16;97833.25;5098570;28;20481;-94
2023/03/14 09:12:11;;;;;;;5.57;2.20;;;;;;;15.47;53.23;97826.75;5099404;28;20044;-96
2023/03/14 09:14:37;;;;;;;5.90;2.35;;;;;;;15.38;54.11;97826.38;5097670;28;20051;-94
2023/03/14 09:17:03;;;;;;;7.97;2.47;;;;;;;15.44;54.26;97821.56;5096917;28;20111;-95
2023/03/14 09:19:31;;;;;;;5.65;2.30;;;;;;;15.86;53.98;97822.56;5097121;28;20040;-94
2023/03/14 09:21:57;;;;;;;6.13;2.85;;;;;;;15.99;53.37;97812.78;5102764;28;20074;-94
2023/03/14 09:24:23;;;;;;;5.18;2.35;;;;;;;15.88;53.73;97816.16;5100727;28;20393;-94
2023/03/14 09:26:49;;;;;;;4.93;2.20;;;;;;;15.73;53.49;97820.66;5096619;28;20131;-95
2023/03/14 09:29:15;;;;;;;7.50;2.60;;;;;;;15.60;54.83;97833.06;5098284;28;20074;-93
2023/03/14 09:31:41;;;;;;;5.57;2.90;;;;;;;15.40;55.76;97832.50;5097171;28;20104;-95
2023/03/14 09:34:07;;;;;;;5.35;2.53;;;;;;;15.09;56.83;97813.88;5099118;28;20051;-93
2023/03/14 09:36:34;;;;;;;5.90;2.90;;;;;;;14.99;57.37;97817.13;5099419;28;20459;-94
2023/03/14 09:39:00;;;;;;;6.22;2.67;;;;;;;14.90;58.10;97828.41;5097289;28;20064;-94
2023/03/14 09:41:29;;;;;;;6.63;2.80;;;;;;;14.64;59.08;97821.91;5097994;28;20048;-92
2023/03/14 09:44:02;;;;;;;7.65;3.65;;;;;;;14.54;60.89;97821.53;5099308;28;20040;-94
2023/03/14 09:46:29;;;;;;;8.85;3.08;;;;;;;14.47;61.64;97827.34;5100171;28;20047;-92
2023/03/14 09:48:55;;;;;;;6.85;3.58;;;;;;;14.44;63.31;97841.75;5101881;28;20052;-94
2023/03/14 09:51:23;;;;;;;14.07;3.60;;;;;;;14.28;64.51;97836.41;5099068;28;20048;-93
2023/03/14 09:53:51;;;;;;;6.00;3.30;;;;;;;14.17;65.15;97823.66;5100003;28;20043;-94
2023/03/14 09:56:22;;;;;;;8.52;3.75;;;;;;;14.12;67.84;97815.03;5096859;28;20036;-93
2023/03/14 09:58:53;;;;;;;7.95;3.67;;;;;;;14.05;69.61;97807.44;5097461;28;20062;-94
2023/03/14 10:01:24;;;;;;;11.25;3.40;;;;;;;14.11;70.15;97810.63;5096637;28;20044;-92
2023/03/14 10:03:53;;;;;;;7.35;3.47;;;;;;;13.96;71.32;97798.13;5099534;28;20108;-94
2023/03/14 10:06:19;;;;;;;;;;;;;;;14.09;72.68;97825.03;5098492;28;20073;-93
2023/03/14 10:08:45;;;;;;;8.02;3.60;;;;;;;13.91;73.01;97784.19;5095999;28;20027;-95
2023/03/14 10:11:16;;;;;;;13.48;5.15;;;;;;;13.81;74.21;97772.28;5099295;28;20078;-92
2023/03/14 10:14:02;;;;;;;9.52;3.83;;;;;;;13.88;74.61;97787.00;5096272;28;20097;-92
2023/03/14 10:16:30;;;;;;;9.55;4.60;;;;;;;13.82;75.33;97774.88;5096137;28;20126;-92
2023/03/14 10:19:02;;;;;;;11.13;4.63;;;;;;;13.92;75.17;97794.78;5096410;28;20044;-93
2023/03/14 10:21:29;;;;;;;13.70;4.97;;;;;;;13.88;76.08;97781.66;5095028;28;20074;-94
2023/03/14 10:24:08;;;;;;;7.53;3.97;;;;;;;13.90;76.49;97788.66;5096929;28;20097;-94
2023/03/14 10:26:35;;;;;;;10.40;4.18;;;;;;;13.87;77.26;97782.63;5095795;28;20040;-92
2023/03/14 10:29:03;;;;;;;8.50;4.15;;;;;;;13.87;77.17;97758.56;5098599;28;20239;-93
2023/03/14 10:31:47;;;;;;;9.82;4.90;;;;;;;13.90;78.40;97764.63;5099410;28;20501;-94
2023/03/14 10:34:17;;;;;;;7.57;4.15;;;;;;;13.91;78.95;97758.31;5102891;28;20071;-93
2023/03/14 10:36:43;;;;;;;9.88;4.28;;;;;;;13.93;79.47;97748.41;5102909;28;20177;-95
2023/03/14 10:39:28;;;;;;;11.15;5.03;;;;;;;13.96;79.21;97713.47;5101509;28;20067;-93
2023/03/14 10:42:03;;;;;;;10.18;4.40;;;;;;;14.15;79.33;97723.97;5098880;28;20040;-93
2023/03/14 10:44:31;;;;;;;15.43;5.28;;;;;;;14.00;79.79;97698.13;5100528;28;20036;-92
2023/03/14 10:46:59;;;;;;;12.65;5.60;;;;;;;13.99;79.80;97688.41;5101675;28;20489;-91
2023/03/14 10:49:28;;;;;;;13.45;6.00;;;;;;;14.11;79.78;97705.50;5092802;28;20040;-94
2023/03/14 10:51:54;;;;;;;14.25;5.10;;;;;;;14.09;80.25;97710.94;5101583;28;20048;-94
2023/03/14 10:54:23;;;;;;;10.98;4.43;;;;;;;14.02;80.57;97693.53;5099908;28;20187;-93
2023/03/14 10:56:57;;;;;;;;;;;;;;;14.08;81.95;97716.41;5103448;28;20088;-93
2023/03/14 10:59:24;;;;;;;9.45;4.90;;;;;;;13.89;82.59;97696.06;5102312;28;19962;-93
2023/03/14 11:01:58;;;;;;;10.10;4.20;;;;;;;13.98;82.28;97703.53;5099269;28;20043;-93
2023/03/14 11:04:52;;;;;;;7.95;4.13;;;;;;;13.92;82.69;97719.06;5098913;28;20123;-93
2023/03/14 11:07:27;;;;;;;7.95;4.30;;;;;;;13.91;82.74;97720.03;5085449;28;20036;-92
2023/03/14 11:10:00;;;;;;;9.13;4.60;;;;;;;13.85;83.88;97707.03;5097346;28;20127;-92
2023/03/14 11:12:41;;;;;;;11.25;4.85;;;;;;;13.75;84.66;97704.03;5096830;28;20055;-94
2023/03/14 11:15:16;;;;;;;11.27;4.90;;;;;;;13.70;85.48;97687.38;5096213;28;20040;-93
2023/03/14 11:17:53;;;;;;;8.35;4.43;;;;;;;13.75;86.16;97693.34;5098544;28;20044;-93
2023/03/14 11:20:35;;;;;;;11.70;5.38;;;;;;;13.90;85.44;97675.53;5098595;28;20410;-92
2023/03/14 11:23:08;;;;;;;11.77;4.28;;;;;;;13.80;85.54;97650.31;5096528;28;20097;-91
2023/03/14 11:25:44;;;;;;;13.70;5.22;;;;;;;13.81;85.89;97638.66;5097544;28;20063;-91
2023/03/14 11:28:18;;;;;;;9.88;4.80;;;;;;;13.81;86.21;97655.56;5099110;28;20147;-94
2023/03/14 11:30:51;;;;;;;11.35;4.32;;;;;;;13.75;86.43;97648.78;5098633;28;20060;-90